sensor_id;sensor_type;location;lat;lon;timestamp;pressure;altitude;pressure_sealevel;temperature;humidity
71392;BME280;59205;50.610;12.638;2022-09-09T00:03:53;95378.34;;;12.64;93.11
71392;BME280;59205;50.610;12.638;2022-09-09T00:06:25;95374.38;;;12.59;93.05
71392;BME280;59205;50.610;12.638;2022-09-09T00:09:10;95372.81;;;12.53;92.70
71392;BME280;59205;50.610;12.638;2022-09-09T00:11:49;95372.72;;;12.67;93.21
71392;BME280;59205;50.610;12.638;2022-09-09T00:14:26;95373.75;;;12.50;92.52
71392;BME280;59205;50.610;12.638;2022-09-09T00:17:00;95371.03;;;12.50;93.16
71392;BME280;59205;50.610;12.638;2022-09-09T00:19:34;95363.69;;;12.36;94.20
71392;BME280;59205;50.610;12.638;2022-09-09T00:22:20;95374.63;;;12.21;95.54
71392;BME280;59205;50.610;12.638;2022-09-09T00:24:56;95366.00;;;12.23;95.70
71392;BME280;59205;50.610;12.638;2022-09-09T00:27:31;95359.91;;;12.28;94.89
71392;BME280;59205;50.610;12.638;2022-09-09T00:30:20;95363.34;;;12.28;96.22
71392;BME280;59205;50.610;12.638;2022-09-09T00:33:10;95367.22;;;12.02;96.39
71392;BME280;59205;50.610;12.638;2022-09-09T00:35:42;95367.09;;;12.11;97.23
71392;BME280;59205;50.610;12.638;2022-09-09T00:38:31;95357.97;;;12.14;96.33
71392;BME280;59205;50.610;12.638;2022-09-09T00:41:08;95363.28;;;12.03;96.43
71392;BME280;59205;50.610;12.638;2022-09-09T00:43:37;95372.00;;;12.27;95.80
71392;BME280;59205;50.610;12.638;2022-09-09T00:54:36;95360.50;;;12.37;94.46
71392;BME280;59205;50.610;12.638;2022-09-09T00:57:28;95370.16;;;12.38;93.87
71392;BME280;59205;50.610;12.638;2022-09-09T00:59:59;95363.88;;;12.32;95.03
71392;BME280;59205;50.610;12.638;2022-09-09T01:07:58;95361.13;;;12.27;96.27
71392;BME280;59205;50.610;12.638;2022-09-09T01:10:47;95353.97;;;12.09;96.46
71392;BME280;59205;50.610;12.638;2022-09-09T01:13:22;95364.72;;;12.38;94.56
71392;BME280;59205;50.610;12.638;2022-09-09T01:15:49;95360.72;;;12.34;93.30
71392;BME280;59205;50.610;12.638;2022-09-09T01:18:17;95361.13;;;12.47;92.71
71392;BME280;59205;50.610;12.638;2022-09-09T01:21:04;95361.78;;;12.62;91.85
71392;BME280;59205;50.610;12.638;2022-09-09T01:26:26;95363.22;;;12.17;93.60
71392;BME280;59205;50.610;12.638;2022-09-09T01:28:53;95362.19;;;12.35;92.52
71392;BME280;59205;50.610;12.638;2022-09-09T01:31:27;95360.84;;;12.45;92.59
71392;BME280;59205;50.610;12.638;2022-09-09T01:33:54;95365.94;;;12.17;93.49
71392;BME280;59205;50.610;12.638;2022-09-09T01:39:17;95365.31;;;12.08;95.01
71392;BME280;59205;50.610;12.638;2022-09-09T01:41:43;95360.22;;;11.95;95.80
71392;BME280;59205;50.610;12.638;2022-09-09T01:44:09;95358.47;;;12.12;95.73
71392;BME280;59205;50.610;12.638;2022-09-09T01:46:35;95360.78;;;12.19;95.34
71392;BME280;59205;50.610;12.638;2022-09-09T01:49:02;95356.75;;;12.15;94.84
71392;BME280;59205;50.610;12.638;2022-09-09T01:51:29;95358.78;;;12.20;93.25
71392;BME280;59205;50.610;12.638;2022-09-09T01:53:54;95353.44;;;12.45;91.49
71392;BME280;59205;50.610;12.638;2022-09-09T01:56:47;95356.50;;;12.33;92.76
71392;BME280;59205;50.610;12.638;2022-09-09T02:04:56;95350.38;;;12.18;93.88
71392;BME280;59205;50.610;12.638;2022-09-09T02:12:40;95356.56;;;12.38;92.04
71392;BME280;59205;50.610;12.638;2022-09-09T02:15:22;95358.94;;;12.31;92.04
71392;BME280;59205;50.610;12.638;2022-09-09T02:17:50;95364.22;;;12.40;92.15
71392;BME280;59205;50.610;12.638;2022-09-09T02:20:18;95361.03;;;12.21;93.17
71392;BME280;59205;50.610;12.638;2022-09-09T02:22:47;95361.47;;;12.34;92.69
71392;BME280;59205;50.610;12.638;2022-09-09T02:25:16;95364.91;;;12.35;91.88
71392;BME280;59205;50.610;12.638;2022-09-09T02:27:45;95364.13;;;12.49;90.98
71392;BME280;59205;50.610;12.638;2022-09-09T02:30:12;95361.78;;;12.22;91.15
71392;BME280;59205;50.610;12.638;2022-09-09T02:32:39;95364.38;;;12.31;92.02
71392;BME280;59205;50.610;12.638;2022-09-09T02:35:11;95352.72;;;12.25;92.35
71392;BME280;59205;50.610;12.638;2022-09-09T02:37:39;95358.75;;;12.14;92.58
71392;BME280;59205;50.610;12.638;2022-09-09T02:40:06;95351.53;;;12.31;91.87
71392;BME280;59205;50.610;12.638;2022-09-09T02:42:39;95353.44;;;12.25;91.17
71392;BME280;59205;50.610;12.638;2022-09-09T02:45:05;95353.28;;;12.54;90.91
71392;BME280;59205;50.610;12.638;2022-09-09T02:50:26;95344.47;;;12.39;91.87
71392;BME280;59205;50.610;12.638;2022-09-09T02:53:12;95348.28;;;12.47;91.50
71392;BME280;59205;50.610;12.638;2022-09-09T02:56:04;95349.75;;;12.28;91.29
71392;BME280;59205;50.610;12.638;2022-09-09T02:58:31;95341.41;;;12.32;91.77
71392;BME280;59205;50.610;12.638;2022-09-09T03:00:57;95349.31;;;12.30;91.59
71392;BME280;59205;50.610;12.638;2022-09-09T03:03:23;95344.06;;;12.46;90.70
71392;BME280;59205;50.610;12.638;2022-09-09T03:05:49;95336.06;;;12.37;89.25
71392;BME280;59205;50.610;12.638;2022-09-09T03:08:15;95349.69;;;12.43;89.76
71392;BME280;59205;50.610;12.638;2022-09-09T03:10:40;95338.16;;;12.48;89.90
71392;BME280;59205;50.610;12.638;2022-09-09T03:13:06;95346.78;;;12.46;90.31
71392;BME280;59205;50.610;12.638;2022-09-09T03:15:32;95341.34;;;12.46;89.20
71392;BME280;59205;50.610;12.638;2022-09-09T03:17:58;95345.34;;;12.51;88.82
71392;BME280;59205;50.610;12.638;2022-09-09T03:20:25;95350.56;;;12.54;88.32
71392;BME280;59205;50.610;12.638;2022-09-09T03:22:55;95346.13;;;12.77;87.12
71392;BME280;59205;50.610;12.638;2022-09-09T03:25:21;95353.31;;;12.80;86.84
71392;BME280;59205;50.610;12.638;2022-09-09T03:27:51;95346.56;;;12.70;87.15
71392;BME280;59205;50.610;12.638;2022-09-09T03:30:22;95336.91;;;12.69;87.88
71392;BME280;59205;50.610;12.638;2022-09-09T03:32:48;95337.19;;;12.71;87.80
71392;BME280;59205;50.610;12.638;2022-09-09T03:35:14;95345.06;;;12.69;87.77
71392;BME280;59205;50.610;12.638;2022-09-09T03:37:40;95337.19;;;12.71;87.62
71392;BME280;59205;50.610;12.638;2022-09-09T03:40:07;95346.75;;;12.66;87.97
71392;BME280;59205;50.610;12.638;2022-09-09T03:42:35;95348.31;;;12.73;88.07
71392;BME280;59205;50.610;12.638;2022-09-09T03:45:05;95350.34;;;12.78;87.60
71392;BME280;59205;50.610;12.638;2022-09-09T03:47:34;95345.81;;;12.69;88.49
71392;BME280;59205;50.610;12.638;2022-09-09T03:50:00;95350.09;;;12.56;89.31
71392;BME280;59205;50.610;12.638;2022-09-09T03:52:25;95346.25;;;12.42;90.37
71392;BME280;59205;50.610;12.638;2022-09-09T03:54:52;95341.88;;;12.50;89.72
71392;BME280;59205;50.610;12.638;2022-09-09T03:57:18;95334.88;;;12.44;90.12
71392;BME280;59205;50.610;12.638;2022-09-09T03:59:44;95335.31;;;12.37;90.45
71392;BME280;59205;50.610;12.638;2022-09-09T04:02:09;95335.09;;;12.40;90.87
71392;BME280;59205;50.610;12.638;2022-09-09T04:04:35;95329.94;;;12.42;90.69
71392;BME280;59205;50.610;12.638;2022-09-09T04:07:01;95326.69;;;12.64;89.51
71392;BME280;59205;50.610;12.638;2022-09-09T04:09:26;95332.28;;;12.75;88.27
71392;BME280;59205;50.610;12.638;2022-09-09T04:11:52;95334.56;;;12.82;87.80
71392;BME280;59205;50.610;12.638;2022-09-09T04:14:18;95332.34;;;13.06;86.78
71392;BME280;59205;50.610;12.638;2022-09-09T04:16:44;95330.75;;;12.94;87.30
71392;BME280;59205;50.610;12.638;2022-09-09T04:19:10;95338.56;;;12.86;88.80
71392;BME280;59205;50.610;12.638;2022-09-09T04:21:39;95334.91;;;12.69;89.47
71392;BME280;59205;50.610;12.638;2022-09-09T04:24:06;95333.06;;;12.55;90.18
71392;BME280;59205;50.610;12.638;2022-09-09T04:26:32;95331.75;;;12.51;91.17
71392;BME280;59205;50.610;12.638;2022-09-09T04:28:58;95335.38;;;12.42;92.54
71392;BME280;59205;50.610;12.638;2022-09-09T04:31:23;95333.53;;;12.34;92.60
71392;BME280;59205;50.610;12.638;2022-09-09T04:33:49;95334.31;;;12.34;92.75
71392;BME280;59205;50.610;12.638;2022-09-09T04:36:15;95338.97;;;12.34;93.47
71392;BME280;59205;50.610;12.638;2022-09-09T04:38:41;95336.88;;;12.43;93.14
71392;BME280;59205;50.610;12.638;2022-09-09T04:41:07;95346.75;;;12.66;90.39
71392;BME280;59205;50.610;12.638;2022-09-09T04:43:32;95350.97;;;12.67;91.26
71392;BME280;59205;50.610;12.638;2022-09-09T04:45:58;95346.66;;;12.55;91.75
71392;BME280;59205;50.610;12.638;2022-09-09T04:48:26;95354.97;;;12.72;90.96
71392;BME280;59205;50.610;12.638;2022-09-09T04:51:02;95349.06;;;12.73;91.25
71392;BME280;59205;50.610;12.638;2022-09-09T04:53:30;95350.78;;;12.96;89.21
71392;BME280;59205;50.610;12.638;2022-09-09T04:56:07;95348.78;;;13.17;87.24
71392;BME280;59205;50.610;12.638;2022-09-09T04:58:35;95338.94;;;13.25;86.51
71392;BME280;59205;50.610;12.638;2022-09-09T05:03:29;95339.66;;;13.20;86.96
71392;BME280;59205;50.610;12.638;2022-09-09T05:06:11;95343.88;;;13.21;87.66
71392;BME280;59205;50.610;12.638;2022-09-09T05:08:37;95347.94;;;13.31;86.60
71392;BME280;59205;50.610;12.638;2022-09-09T05:11:25;95346.00;;;13.37;85.74
71392;BME280;59205;50.610;12.638;2022-09-09T05:13:50;95342.75;;;13.33;87.52
71392;BME280;59205;50.610;12.638;2022-09-09T05:16:16;95347.88;;;13.25;87.12
71392;BME280;59205;50.610;12.638;2022-09-09T05:18:42;95342.19;;;13.29;87.20
71392;BME280;59205;50.610;12.638;2022-09-09T05:21:08;95338.34;;;13.41;85.46
71392;BME280;59205;50.610;12.638;2022-09-09T05:23:34;95343.59;;;13.50;85.37
71392;BME280;59205;50.610;12.638;2022-09-09T05:26:00;95349.03;;;13.50;85.88
71392;BME280;59205;50.610;12.638;2022-09-09T05:28:27;95343.66;;;13.55;84.95
71392;BME280;59205;50.610;12.638;2022-09-09T05:31:12;95345.41;;;13.58;84.55
71392;BME280;59205;50.610;12.638;2022-09-09T05:33:43;95353.09;;;13.60;84.64
71392;BME280;59205;50.610;12.638;2022-09-09T05:36:15;95355.88;;;13.65;84.43
71392;BME280;59205;50.610;12.638;2022-09-09T05:38:42;95356.91;;;13.73;84.15
71392;BME280;59205;50.610;12.638;2022-09-09T05:41:08;95356.66;;;13.71;84.85
71392;BME280;59205;50.610;12.638;2022-09-09T05:43:36;95363.88;;;13.79;84.71
71392;BME280;59205;50.610;12.638;2022-09-09T05:46:13;95371.00;;;13.71;87.54
71392;BME280;59205;50.610;12.638;2022-09-09T05:48:41;95374.94;;;13.70;88.48
71392;BME280;59205;50.610;12.638;2022-09-09T05:51:09;95374.22;;;13.70;85.57
71392;BME280;59205;50.610;12.638;2022-09-09T05:53:36;95371.53;;;13.75;84.56
71392;BME280;59205;50.610;12.638;2022-09-09T05:56:03;95364.91;;;13.87;84.22
71392;BME280;59205;50.610;12.638;2022-09-09T05:58:30;95363.09;;;14.10;82.71
71392;BME280;59205;50.610;12.638;2022-09-09T06:01:14;95363.34;;;14.12;84.65
71392;BME280;59205;50.610;12.638;2022-09-09T06:03:41;95367.47;;;14.38;81.24
71392;BME280;59205;50.610;12.638;2022-09-09T06:06:09;95363.53;;;14.45;82.62
71392;BME280;59205;50.610;12.638;2022-09-09T06:08:38;95369.75;;;14.45;82.17
71392;BME280;59205;50.610;12.638;2022-09-09T06:11:09;95375.72;;;14.55;82.20
71392;BME280;59205;50.610;12.638;2022-09-09T06:13:36;95368.81;;;14.65;82.53
71392;BME280;59205;50.610;12.638;2022-09-09T06:16:04;95374.81;;;14.74;82.44
71392;BME280;59205;50.610;12.638;2022-09-09T06:18:30;95373.66;;;15.08;80.11
71392;BME280;59205;50.610;12.638;2022-09-09T06:21:00;95371.00;;;15.30;79.84
71392;BME280;59205;50.610;12.638;2022-09-09T06:23:26;95374.94;;;15.24;80.91
71392;BME280;59205;50.610;12.638;2022-09-09T06:26:01;95366.78;;;15.73;79.22
71392;BME280;59205;50.610;12.638;2022-09-09T06:28:27;95371.75;;;15.58;80.13
71392;BME280;59205;50.610;12.638;2022-09-09T06:31:04;95371.47;;;16.05;77.36
71392;BME280;59205;50.610;12.638;2022-09-09T06:33:38;95368.03;;;15.77;82.79
71392;BME280;59205;50.610;12.638;2022-09-09T06:36:10;95368.19;;;16.40;77.81
71392;BME280;59205;50.610;12.638;2022-09-09T06:38:36;95367.81;;;16.76;75.93
71392;BME280;59205;50.610;12.638;2022-09-09T06:41:02;95376.53;;;16.75;74.82
71392;BME280;59205;50.610;12.638;2022-09-09T06:43:28;95370.84;;;16.62;75.88
71392;BME280;59205;50.610;12.638;2022-09-09T06:46:21;95374.38;;;16.57;76.15
71392;BME280;59205;50.610;12.638;2022-09-09T06:48:47;95378.34;;;16.61;76.52
71392;BME280;59205;50.610;12.638;2022-09-09T06:51:18;95371.06;;;16.69;76.54
71392;BME280;59205;50.610;12.638;2022-09-09T06:53:45;95375.06;;;16.74;75.97
71392;BME280;59205;50.610;12.638;2022-09-09T06:58:37;95371.47;;;16.90;75.00
71392;BME280;59205;50.610;12.638;2022-09-09T07:01:04;95379.69;;;16.90;75.49
71392;BME280;59205;50.610;12.638;2022-09-09T07:03:29;95374.19;;;16.95;74.61
71392;BME280;59205;50.610;12.638;2022-09-09T07:05:56;95375.22;;;16.87;75.10
71392;BME280;59205;50.610;12.638;2022-09-09T07:08:22;95377.72;;;16.85;74.73
71392;BME280;59205;50.610;12.638;2022-09-09T07:10:48;95382.91;;;16.94;74.27
71392;BME280;59205;50.610;12.638;2022-09-09T07:13:13;95384.88;;;16.99;73.45
71392;BME280;59205;50.610;12.638;2022-09-09T07:15:41;95384.22;;;16.82;74.05
71392;BME280;59205;50.610;12.638;2022-09-09T07:18:06;95391.41;;;16.85;75.10
71392;BME280;59205;50.610;12.638;2022-09-09T07:20:32;95397.69;;;16.69;75.79
71392;BME280;59205;50.610;12.638;2022-09-09T07:22:57;95394.75;;;16.56;78.08
71392;BME280;59205;50.610;12.638;2022-09-09T07:25:23;95398.53;;;16.20;80.92
71392;BME280;59205;50.610;12.638;2022-09-09T07:27:49;95396.06;;;16.22;79.41
71392;BME280;59205;50.610;12.638;2022-09-09T07:30:14;95385.16;;;16.11;80.90
71392;BME280;59205;50.610;12.638;2022-09-09T07:32:40;95392.06;;;16.23;80.29
71392;BME280;59205;50.610;12.638;2022-09-09T07:35:05;95394.56;;;16.21;80.92
71392;BME280;59205;50.610;12.638;2022-09-09T07:37:31;95404.00;;;16.42;80.18
71392;BME280;59205;50.610;12.638;2022-09-09T07:39:56;95398.75;;;16.44;80.42
71392;BME280;59205;50.610;12.638;2022-09-09T07:42:22;95404.28;;;16.38;79.31
71392;BME280;59205;50.610;12.638;2022-09-09T07:44:47;95400.75;;;16.49;79.57
71392;BME280;59205;50.610;12.638;2022-09-09T07:47:12;95403.38;;;16.82;78.92
71392;BME280;59205;50.610;12.638;2022-09-09T07:49:39;95412.13;;;16.75;79.48
71392;BME280;59205;50.610;12.638;2022-09-09T07:52:05;95407.56;;;16.88;77.86
71392;BME280;59205;50.610;12.638;2022-09-09T07:54:31;95405.06;;;16.90;77.84
71392;BME280;59205;50.610;12.638;2022-09-09T07:56:57;95416.03;;;16.85;76.72
71392;BME280;59205;50.610;12.638;2022-09-09T07:59:23;95411.25;;;17.02;75.79
71392;BME280;59205;50.610;12.638;2022-09-09T08:01:50;95412.56;;;16.84;76.94
71392;BME280;59205;50.610;12.638;2022-09-09T08:04:20;95410.94;;;17.11;76.22
71392;BME280;59205;50.610;12.638;2022-09-09T08:06:49;95414.00;;;17.47;76.28
71392;BME280;59205;50.610;12.638;2022-09-09T08:09:15;95407.03;;;17.46;75.40
71392;BME280;59205;50.610;12.638;2022-09-09T08:11:42;95409.78;;;17.46;74.60
71392;BME280;59205;50.610;12.638;2022-09-09T08:14:08;95419.56;;;17.31;74.70
71392;BME280;59205;50.610;12.638;2022-09-09T08:16:40;95408.84;;;17.73;73.58
71392;BME280;59205;50.610;12.638;2022-09-09T08:19:07;95409.50;;;17.85;73.03
71392;BME280;59205;50.610;12.638;2022-09-09T08:21:38;95410.84;;;18.02;72.19
71392;BME280;59205;50.610;12.638;2022-09-09T08:24:06;95410.00;;;17.83;71.89
71392;BME280;59205;50.610;12.638;2022-09-09T08:26:37;95408.47;;;18.17;70.62
71392;BME280;59205;50.610;12.638;2022-09-09T08:29:07;95410.00;;;18.42;69.73
71392;BME280;59205;50.610;12.638;2022-09-09T08:31:38;95416.28;;;18.37;69.25
71392;BME280;59205;50.610;12.638;2022-09-09T08:34:06;95415.28;;;19.43;65.82
71392;BME280;59205;50.610;12.638;2022-09-09T08:36:38;95412.69;;;19.51;66.48
71392;BME280;59205;50.610;12.638;2022-09-09T08:39:08;95415.06;;;19.41;65.97
71392;BME280;59205;50.610;12.638;2022-09-09T08:41:53;95421.28;;;19.79;64.90
71392;BME280;59205;50.610;12.638;2022-09-09T08:44:41;95421.09;;;21.04;60.67
71392;BME280;59205;50.610;12.638;2022-09-09T08:55:51;95430.81;;;22.87;54.70
71392;BME280;59205;50.610;12.638;2022-09-09T08:58:33;95417.06;;;23.30;54.63
71392;BME280;59205;50.610;12.638;2022-09-09T09:10:00;95426.66;;;20.03;62.31
71392;BME280;59205;50.610;12.638;2022-09-09T09:12:35;95423.19;;;19.84;61.25
71392;BME280;59205;50.610;12.638;2022-09-09T09:15:14;95420.13;;;19.19;63.00
71392;BME280;59205;50.610;12.638;2022-09-09T09:17:42;95425.97;;;19.10;62.96
71392;BME280;59205;50.610;12.638;2022-09-09T09:20:14;95427.66;;;18.95;62.48
71392;BME280;59205;50.610;12.638;2022-09-09T09:23:01;95419.78;;;19.04;63.61
71392;BME280;59205;50.610;12.638;2022-09-09T09:25:35;95413.94;;;19.68;60.60
71392;BME280;59205;50.610;12.638;2022-09-09T09:28:26;95420.50;;;19.28;59.97
71392;BME280;59205;50.610;12.638;2022-09-09T09:31:05;95415.47;;;19.64;60.11
71392;BME280;59205;50.610;12.638;2022-09-09T09:33:52;95419.53;;;21.42;54.18
71392;BME280;59205;50.610;12.638;2022-09-09T09:36:19;95426.28;;;21.67;53.19
71392;BME280;59205;50.610;12.638;2022-09-09T09:38:54;95418.22;;;23.07;50.69
71392;BME280;59205;50.610;12.638;2022-09-09T09:41:38;95414.53;;;23.40;48.99
71392;BME280;59205;50.610;12.638;2022-09-09T09:44:05;95406.06;;;24.41;47.39
71392;BME280;59205;50.610;12.638;2022-09-09T09:46:32;95412.69;;;24.08;47.30
71392;BME280;59205;50.610;12.638;2022-09-09T09:51:24;95413.66;;;25.47;45.91
71392;BME280;59205;50.610;12.638;2022-09-09T09:53:50;95412.91;;;24.84;45.29
71392;BME280;59205;50.610;12.638;2022-09-09T09:56:26;95424.19;;;24.42;46.11
71392;BME280;59205;50.610;12.638;2022-09-09T09:58:53;95412.91;;;24.47;47.02
71392;BME280;59205;50.610;12.638;2022-09-09T10:01:45;95412.53;;;24.28;47.26
71392;BME280;59205;50.610;12.638;2022-09-09T10:04:21;95411.06;;;24.57;46.32
71392;BME280;59205;50.610;12.638;2022-09-09T10:06:49;95402.56;;;24.40;45.79
71392;BME280;59205;50.610;12.638;2022-09-09T10:09:26;95412.34;;;24.26;46.73
71392;BME280;59205;50.610;12.638;2022-09-09T10:12:05;95408.97;;;25.02;44.89
71392;BME280;59205;50.610;12.638;2022-09-09T10:22:35;95418.56;;;25.09;44.73
71392;BME280;59205;50.610;12.638;2022-09-09T10:30:31;95415.44;;;23.85;46.29
71392;BME280;59205;50.610;12.638;2022-09-09T10:33:10;95415.28;;;24.50;43.33
71392;BME280;59205;50.610;12.638;2022-09-09T10:36:07;95409.97;;;26.64;42.71
71392;BME280;59205;50.610;12.638;2022-09-09T10:38:40;95404.03;;;25.40;43.56
71392;BME280;59205;50.610;12.638;2022-09-09T10:44:13;95418.19;;;25.12;45.09
71392;BME280;59205;50.610;12.638;2022-09-09T10:47:11;95405.78;;;23.21;48.70
71392;BME280;59205;50.610;12.638;2022-09-09T10:50:03;95414.09;;;22.65;48.57
71392;BME280;59205;50.610;12.638;2022-09-09T10:53:08;95409.53;;;22.27;49.37
71392;BME280;59205;50.610;12.638;2022-09-09T10:55:44;95404.63;;;22.12;49.75
71392;BME280;59205;50.610;12.638;2022-09-09T10:58:23;95406.97;;;24.13;47.71
71392;BME280;59205;50.610;12.638;2022-09-09T11:00:57;95402.88;;;23.92;47.02
71392;BME280;59205;50.610;12.638;2022-09-09T11:03:28;95394.16;;;25.07;46.56
71392;BME280;59205;50.610;12.638;2022-09-09T11:06:11;95403.91;;;25.70;43.11
71392;BME280;59205;50.610;12.638;2022-09-09T11:08:39;95402.47;;;25.22;43.05
71392;BME280;59205;50.610;12.638;2022-09-09T11:11:12;95401.78;;;25.93;44.00
71392;BME280;59205;50.610;12.638;2022-09-09T11:19:18;95414.13;;;22.24;48.77
71392;BME280;59205;50.610;12.638;2022-09-09T11:21:48;95404.63;;;23.59;48.17
71392;BME280;59205;50.610;12.638;2022-09-09T11:24:21;95407.31;;;22.66;50.11
71392;BME280;59205;50.610;12.638;2022-09-09T11:27:13;95406.22;;;21.67;54.05
71392;BME280;59205;50.610;12.638;2022-09-09T11:41:01;95403.75;;;20.26;56.22
71392;BME280;59205;50.610;12.638;2022-09-09T11:46:07;95399.56;;;22.24;51.04
71392;BME280;59205;50.610;12.638;2022-09-09T11:48:37;95386.94;;;23.12;46.85
71392;BME280;59205;50.610;12.638;2022-09-09T11:51:11;95385.56;;;24.06;45.96
71392;BME280;59205;50.610;12.638;2022-09-09T11:56:43;95383.34;;;24.35;45.51
71392;BME280;59205;50.610;12.638;2022-09-09T12:02:00;95390.31;;;24.88;44.87
71392;BME280;59205;50.610;12.638;2022-09-09T12:04:43;95387.78;;;24.75;45.49
71392;BME280;59205;50.610;12.638;2022-09-09T12:09:51;95388.25;;;22.55;51.00
71392;BME280;59205;50.610;12.638;2022-09-09T12:12:32;95380.31;;;25.00;46.09
71392;BME280;59205;50.610;12.638;2022-09-09T12:15:01;95378.47;;;23.75;46.15
71392;BME280;59205;50.610;12.638;2022-09-09T12:17:28;95382.78;;;24.14;46.52
71392;BME280;59205;50.610;12.638;2022-09-09T12:25:35;95370.84;;;25.10;48.10
71392;BME280;59205;50.610;12.638;2022-09-09T12:28:20;95367.63;;;23.27;47.23
71392;BME280;59205;50.610;12.638;2022-09-09T12:31:27;95360.41;;;21.84;48.70
71392;BME280;59205;50.610;12.638;2022-09-09T12:34:09;95371.97;;;21.16;50.38
71392;BME280;59205;50.610;12.638;2022-09-09T12:36:35;95367.91;;;20.83;51.74
71392;BME280;59205;50.610;12.638;2022-09-09T12:39:15;95362.25;;;20.76;53.50
71392;BME280;59205;50.610;12.638;2022-09-09T12:41:51;95365.16;;;20.58;53.12
71392;BME280;59205;50.610;12.638;2022-09-09T12:44:21;95371.28;;;20.38;54.21
71392;BME280;59205;50.610;12.638;2022-09-09T12:46:46;95365.03;;;20.50;54.23
71392;BME280;59205;50.610;12.638;2022-09-09T12:52:24;95361.19;;;20.40;55.58
71392;BME280;59205;50.610;12.638;2022-09-09T12:54:52;95353.69;;;20.15;55.26
71392;BME280;59205;50.610;12.638;2022-09-09T12:57:19;95360.84;;;20.05;53.34
71392;BME280;59205;50.610;12.638;2022-09-09T12:59:47;95367.81;;;20.06;54.01
71392;BME280;59205;50.610;12.638;2022-09-09T13:02:22;95371.06;;;19.60;56.56
71392;BME280;59205;50.610;12.638;2022-09-09T13:04:48;95378.88;;;19.87;55.25
71392;BME280;59205;50.610;12.638;2022-09-09T13:07:16;95367.25;;;19.63;54.59
71392;BME280;59205;50.610;12.638;2022-09-09T13:09:43;95372.19;;;19.51;55.02
71392;BME280;59205;50.610;12.638;2022-09-09T13:12:21;95375.28;;;19.61;54.64
71392;BME280;59205;50.610;12.638;2022-09-09T13:14:50;95384.84;;;19.41;55.43
71392;BME280;59205;50.610;12.638;2022-09-09T13:17:20;95389.81;;;19.43;54.80
71392;BME280;59205;50.610;12.638;2022-09-09T13:19:47;95389.28;;;19.44;55.47
71392;BME280;59205;50.610;12.638;2022-09-09T13:22:18;95388.19;;;19.16;57.31
71392;BME280;59205;50.610;12.638;2022-09-09T13:24:45;95389.31;;;19.02;57.69
71392;BME280;59205;50.610;12.638;2022-09-09T13:27:28;95390.69;;;18.96;57.35
71392;BME280;59205;50.610;12.638;2022-09-09T13:29:54;95388.22;;;18.92;57.98
71392;BME280;59205;50.610;12.638;2022-09-09T13:32:22;95386.84;;;18.80;58.93
71392;BME280;59205;50.610;12.638;2022-09-09T13:34:52;95390.47;;;18.70;59.30
71392;BME280;59205;50.610;12.638;2022-09-09T13:37:33;95387.13;;;18.58;59.79
71392;BME280;59205;50.610;12.638;2022-09-09T13:40:00;95378.22;;;18.28;59.10
71392;BME280;59205;50.610;12.638;2022-09-09T13:42:28;95376.19;;;18.29;59.93
71392;BME280;59205;50.610;12.638;2022-09-09T13:44:59;95373.50;;;18.23;59.99
71392;BME280;59205;50.610;12.638;2022-09-09T13:47:43;95359.94;;;18.07;57.72
71392;BME280;59205;50.610;12.638;2022-09-09T13:50:26;95348.09;;;18.17;56.51
71392;BME280;59205;50.610;12.638;2022-09-09T13:52:57;95341.31;;;18.24;55.17
71392;BME280;59205;50.610;12.638;2022-09-09T13:55:25;95334.78;;;18.93;52.51
71392;BME280;59205;50.610;12.638;2022-09-09T14:00:25;95340.38;;;19.56;51.27
71392;BME280;59205;50.610;12.638;2022-09-09T14:02:51;95334.59;;;19.41;51.08
71392;BME280;59205;50.610;12.638;2022-09-09T14:05:19;95343.13;;;19.56;50.67
71392;BME280;59205;50.610;12.638;2022-09-09T14:07:45;95340.59;;;19.58;50.42
71392;BME280;59205;50.610;12.638;2022-09-09T14:10:11;95343.41;;;19.21;51.78
71392;BME280;59205;50.610;12.638;2022-09-09T14:12:37;95341.16;;;18.83;53.13
71392;BME280;59205;50.610;12.638;2022-09-09T14:15:04;95349.38;;;18.64;54.46
71392;BME280;59205;50.610;12.638;2022-09-09T14:17:30;95351.69;;;18.79;55.13
71392;BME280;59205;50.610;12.638;2022-09-09T14:19:57;95340.56;;;18.71;55.88
71392;BME280;59205;50.610;12.638;2022-09-09T14:22:22;95322.72;;;18.59;57.15
71392;BME280;59205;50.610;12.638;2022-09-09T14:24:48;95324.63;;;18.46;55.57
71392;BME280;59205;50.610;12.638;2022-09-09T14:27:14;95334.72;;;18.38;56.84
71392;BME280;59205;50.610;12.638;2022-09-09T14:29:40;95324.97;;;18.61;57.46
71392;BME280;59205;50.610;12.638;2022-09-09T14:32:05;95317.16;;;18.46;56.99
71392;BME280;59205;50.610;12.638;2022-09-09T14:34:31;95309.16;;;18.24;58.59
71392;BME280;59205;50.610;12.638;2022-09-09T14:36:59;95310.56;;;18.07;58.99
71392;BME280;59205;50.610;12.638;2022-09-09T14:39:24;95311.09;;;18.05;60.40
71392;BME280;59205;50.610;12.638;2022-09-09T14:41:50;95321.53;;;18.07;60.64
71392;BME280;59205;50.610;12.638;2022-09-09T14:44:15;95321.53;;;18.07;62.04
71392;BME280;59205;50.610;12.638;2022-09-09T14:46:41;95327.78;;;18.07;62.75
71392;BME280;59205;50.610;12.638;2022-09-09T14:49:08;95330.88;;;17.98;62.77
71392;BME280;59205;50.610;12.638;2022-09-09T14:51:34;95357.34;;;17.90;63.62
71392;BME280;59205;50.610;12.638;2022-09-09T14:53:59;95367.75;;;17.97;65.12
71392;BME280;59205;50.610;12.638;2022-09-09T14:56:30;95383.47;;;17.67;66.24
71392;BME280;59205;50.610;12.638;2022-09-09T14:58:58;95386.03;;;17.54;67.53
71392;BME280;59205;50.610;12.638;2022-09-09T15:01:24;95389.22;;;17.64;67.54
71392;BME280;59205;50.610;12.638;2022-09-09T15:03:59;95379.34;;;17.55;67.26
71392;BME280;59205;50.610;12.638;2022-09-09T15:06:27;95386.84;;;17.49;68.10